createdAt,value
2023-03-29T00:00:38.347Z,15.10
2023-03-29T00:03:07.835Z,16.08
2023-03-29T00:05:35.529Z,20.83
2023-03-29T00:08:07.591Z,23.73
2023-03-29T00:10:35.384Z,18.00
2023-03-29T00:13:03.215Z,15.82
2023-03-29T00:15:30.335Z,30.40
2023-03-29T00:17:58.420Z,16.73
2023-03-29T00:20:25.877Z,15.98
2023-03-29T00:22:52.600Z,16.23
2023-03-29T00:25:19.299Z,16.50
2023-03-29T00:27:46.400Z,15.70
2023-03-29T00:30:14.157Z,16.08
2023-03-29T00:32:40.930Z,15.57
2023-03-29T00:35:09.855Z,15.40
2023-03-29T00:37:37.348Z,15.80
2023-03-29T00:40:11.112Z,16.80
2023-03-29T00:42:40.429Z,16.95
2023-03-29T00:45:10.753Z,16.33
2023-03-29T00:47:42.629Z,15.35
2023-03-29T00:50:44.616Z,15.45
2023-03-29T00:53:33.449Z,14.85
2023-03-29T00:56:07.986Z,16.10
2023-03-29T00:58:56.052Z,15.25
2023-03-29T01:01:34.846Z,14.65
2023-03-29T01:04:08.571Z,18.02
2023-03-29T01:06:43.716Z,16.60
2023-03-29T01:09:15.056Z,15.65
2023-03-29T01:11:47.967Z,15.02
2023-03-29T01:14:27.129Z,15.70
2023-03-29T01:16:54.553Z,16.85
2023-03-29T01:19:27.003Z,15.57
2023-03-29T01:22:13.542Z,15.88
2023-03-29T01:25:01.395Z,14.35
2023-03-29T01:27:50.076Z,15.95
2023-03-29T01:30:26.048Z,15.73
2023-03-29T01:32:59.665Z,15.25
2023-03-29T01:35:38.776Z,14.57
2023-03-29T01:38:30.134Z,16.15
2023-03-29T01:40:57.196Z,16.85
2023-03-29T01:43:44.845Z,14.93
2023-03-29T01:46:34.221Z,14.68
2023-03-29T01:49:11.562Z,14.07
2023-03-29T01:51:49.723Z,13.25
2023-03-29T01:54:25.780Z,14.98
2023-03-29T01:56:53.790Z,12.35
2023-03-29T01:59:24.334Z,15.20
2023-03-29T02:01:54.416Z,15.68
2023-03-29T02:04:48.091Z,13.05
2023-03-29T02:07:17.794Z,14.65
2023-03-29T02:09:47.031Z,12.70
2023-03-29T02:12:17.184Z,12.50
2023-03-29T02:14:44.041Z,14.35
2023-03-29T02:17:21.836Z,12.60
2023-03-29T02:19:54.022Z,13.52
2023-03-29T02:22:40.823Z,11.35
2023-03-29T02:25:09.414Z,12.63
2023-03-29T02:27:38.518Z,12.50
2023-03-29T02:30:12.904Z,13.00
2023-03-29T02:32:45.618Z,13.05
2023-03-29T02:35:21.937Z,12.90
2023-03-29T02:37:54.800Z,13.30
2023-03-29T02:40:24.048Z,12.18
2023-03-29T02:42:50.871Z,13.38
2023-03-29T02:45:19.177Z,14.13
2023-03-29T02:47:54.439Z,13.23
2023-03-29T02:50:22.052Z,16.05
2023-03-29T02:52:56.497Z,14.57
2023-03-29T02:55:30.623Z,16.17
2023-03-29T02:57:58.480Z,16.48
2023-03-29T03:00:25.377Z,17.40
2023-03-29T03:02:52.724Z,19.73
2023-03-29T03:05:19.606Z,18.40
2023-03-29T03:07:47.047Z,14.88
2023-03-29T03:10:14.711Z,19.88
2023-03-29T03:12:41.961Z,14.93
2023-03-29T03:15:09.426Z,14.95
2023-03-29T03:17:40.289Z,15.00
2023-03-29T03:20:13.587Z,12.75
2023-03-29T03:22:48.868Z,12.20
2023-03-29T03:25:21.246Z,11.18
2023-03-29T03:27:49.182Z,13.80
2023-03-29T03:30:16.963Z,13.10
2023-03-29T03:32:44.780Z,11.43
2023-03-29T03:35:12.429Z,12.57
2023-03-29T03:37:40.134Z,10.63
2023-03-29T03:40:09.040Z,11.23
2023-03-29T03:42:36.133Z,13.13
2023-03-29T03:45:02.920Z,12.52
2023-03-29T03:47:30.771Z,13.27
2023-03-29T03:49:58.293Z,15.35
2023-03-29T03:52:25.289Z,13.32
2023-03-29T03:54:52.048Z,12.90
2023-03-29T03:57:20.183Z,11.77
2023-03-29T03:59:48.032Z,12.98
2023-03-29T04:02:17.660Z,15.13
2023-03-29T04:04:46.346Z,13.85
2023-03-29T04:07:14.743Z,9.25
2023-03-29T04:09:41.470Z,10.73
2023-03-29T04:12:10.732Z,11.70
2023-03-29T04:14:37.608Z,10.25
2023-03-29T04:17:04.324Z,9.63
2023-03-29T04:19:32.681Z,8.52
2023-03-29T04:21:59.836Z,9.27
2023-03-29T04:24:27.164Z,7.97
2023-03-29T04:26:53.890Z,10.20
2023-03-29T04:29:21.390Z,9.13
2023-03-29T04:31:51.130Z,8.43
2023-03-29T04:34:20.471Z,8.52
2023-03-29T04:36:50.410Z,7.45
2023-03-29T04:39:18.129Z,8.10
2023-03-29T04:41:45.939Z,7.85
2023-03-29T04:44:14.622Z,9.18
2023-03-29T04:46:43.006Z,8.52
2023-03-29T04:49:10.159Z,8.38
2023-03-29T04:51:38.243Z,9.02
2023-03-29T04:54:07.648Z,8.48
2023-03-29T04:56:34.311Z,9.45
2023-03-29T04:59:08.888Z,10.40
2023-03-29T05:01:37.219Z,9.45
2023-03-29T05:04:05.026Z,9.77
2023-03-29T05:06:37.940Z,10.15
2023-03-29T05:09:04.958Z,11.20
2023-03-29T05:11:32.159Z,9.90
2023-03-29T05:14:03.971Z,9.88
2023-03-29T05:16:31.276Z,9.48
2023-03-29T05:18:58.876Z,9.32
2023-03-29T05:21:31.770Z,8.80
2023-03-29T05:23:58.950Z,10.73
2023-03-29T05:26:27.287Z,9.10
2023-03-29T05:28:54.462Z,10.55
2023-03-29T05:31:21.686Z,9.50
2023-03-29T05:33:48.513Z,10.23
2023-03-29T05:36:16.662Z,9.10
2023-03-29T05:38:51.007Z,8.70
2023-03-29T05:41:21.639Z,8.40
2023-03-29T05:43:48.721Z,7.93
2023-03-29T05:46:19.576Z,7.40
2023-03-29T05:48:47.081Z,8.73
2023-03-29T05:51:13.782Z,9.82
2023-03-29T05:53:41.807Z,8.93
2023-03-29T05:56:11.234Z,8.38
2023-03-29T05:58:39.372Z,6.05
2023-03-29T06:01:12.307Z,8.10
2023-03-29T06:03:39.366Z,6.53
2023-03-29T06:06:08.886Z,7.22
2023-03-29T06:08:35.852Z,5.70
2023-03-29T06:11:09.239Z,8.05
2023-03-29T06:13:38.414Z,5.72
2023-03-29T06:16:06.491Z,6.78
2023-03-29T06:18:34.926Z,5.75
2023-03-29T06:21:02.834Z,6.10
2023-03-29T06:23:30.715Z,5.53
2023-03-29T06:25:58.385Z,6.05
2023-03-29T06:28:28.611Z,5.47
2023-03-29T06:30:57.702Z,6.65
2023-03-29T06:33:28.440Z,7.00
2023-03-29T06:35:55.303Z,6.68
2023-03-29T06:38:23.464Z,5.90
2023-03-29T06:40:51.568Z,5.53
2023-03-29T06:43:19.493Z,6.47
2023-03-29T06:45:47.840Z,5.60
2023-03-29T06:48:16.568Z,5.38
2023-03-29T06:50:43.304Z,5.30
2023-03-29T06:53:13.185Z,5.53
2023-03-29T06:55:40.128Z,6.20
2023-03-29T06:58:08.708Z,8.50
2023-03-29T07:00:38.062Z,8.38
2023-03-29T07:03:09.908Z,11.38
2023-03-29T07:05:41.500Z,10.77
2023-03-29T07:08:08.700Z,6.75
2023-03-29T07:10:41.222Z,6.00
2023-03-29T07:13:09.949Z,8.95
2023-03-29T07:15:37.046Z,8.70
2023-03-29T07:18:04.980Z,4.63
2023-03-29T07:20:33.793Z,7.30
2023-03-29T07:23:03.473Z,7.15
2023-03-29T07:25:30.884Z,8.25
2023-03-29T07:27:59.400Z,6.40
2023-03-29T07:30:31.978Z,5.70
2023-03-29T07:32:59.675Z,5.72
2023-03-29T07:35:28.566Z,9.02
2023-03-29T07:37:56.032Z,5.70
2023-03-29T07:40:23.857Z,6.20
2023-03-29T07:42:56.856Z,8.32
2023-03-29T07:45:26.846Z,6.18
2023-03-29T07:47:59.995Z,8.63
2023-03-29T07:50:27.885Z,4.83
2023-03-29T07:52:55.256Z,3.87
2023-03-29T07:55:22.305Z,4.60
2023-03-29T07:57:50.259Z,5.20
2023-03-29T08:00:22.348Z,6.87
2023-03-29T08:02:51.125Z,4.20
2023-03-29T08:05:29.213Z,5.53
2023-03-29T08:08:00.997Z,6.07
2023-03-29T08:10:29.509Z,8.97
2023-03-29T08:12:57.127Z,5.30
2023-03-29T08:15:24.151Z,3.77
2023-03-29T08:17:51.454Z,6.00
2023-03-29T08:20:18.268Z,8.50
2023-03-29T08:22:45.061Z,6.97
2023-03-29T08:25:12.534Z,6.60
2023-03-29T08:27:39.672Z,6.53
2023-03-29T08:30:08.697Z,5.33
2023-03-29T08:32:36.883Z,5.07
2023-03-29T08:35:06.941Z,10.33
2023-03-29T08:37:36.368Z,5.00
2023-03-29T08:40:04.589Z,5.37
2023-03-29T08:43:00.178Z,4.07
2023-03-29T08:45:38.872Z,3.73
2023-03-29T08:48:18.677Z,6.90
2023-03-29T08:50:49.765Z,6.80
2023-03-29T08:53:27.175Z,3.20
2023-03-29T08:55:57.411Z,6.27
2023-03-29T08:58:29.085Z,4.97
2023-03-29T09:00:58.380Z,4.63
2023-03-29T09:03:39.096Z,5.87
2023-03-29T09:06:09.805Z,5.13
2023-03-29T09:08:47.019Z,4.40
2023-03-29T09:11:41.420Z,4.30
2023-03-29T09:14:27.933Z,7.07
2023-03-29T09:17:17.587Z,6.33
2023-03-29T09:19:56.604Z,4.37
2023-03-29T09:22:48.652Z,2.90
2023-03-29T09:25:53.335Z,3.73
2023-03-29T09:28:40.742Z,3.07
2023-03-29T09:31:16.954Z,3.43
2023-03-29T09:33:54.604Z,6.57
2023-03-29T09:36:31.638Z,4.60
2023-03-29T09:38:59.110Z,8.40
2023-03-29T09:41:49.336Z,5.57
2023-03-29T09:44:31.324Z,6.50
2023-03-29T09:47:19.227Z,4.93
2023-03-29T09:49:50.766Z,4.25
2023-03-29T09:52:20.582Z,4.00
2023-03-29T09:54:47.363Z,3.78
2023-03-29T09:57:17.415Z,3.75
2023-03-29T09:59:47.078Z,5.18
2023-03-29T10:02:14.730Z,3.65
2023-03-29T10:04:43.012Z,4.63
2023-03-29T10:07:20.588Z,3.97
2023-03-29T10:09:50.895Z,3.00
2023-03-29T10:12:17.935Z,3.03
2023-03-29T10:14:54.428Z,2.60
2023-03-29T10:17:26.718Z,3.92
2023-03-29T10:20:00.283Z,3.10
2023-03-29T10:22:34.642Z,3.53
2023-03-29T10:25:02.534Z,2.65
2023-03-29T10:27:31.963Z,4.38
2023-03-29T10:30:00.345Z,3.40
2023-03-29T10:32:35.831Z,3.60
2023-03-29T10:35:15.253Z,3.75
2023-03-29T10:37:50.414Z,3.75
2023-03-29T10:40:26.926Z,4.05
2023-03-29T10:42:58.485Z,5.32
2023-03-29T10:45:29.061Z,4.20
2023-03-29T10:47:57.939Z,2.93
2023-03-29T10:50:31.879Z,3.78
2023-03-29T10:52:58.654Z,2.70
2023-03-29T10:55:32.373Z,4.53
2023-03-29T10:58:05.323Z,2.83
2023-03-29T11:00:43.728Z,2.83
2023-03-29T11:03:22.782Z,2.73
2023-03-29T11:06:38.895Z,4.63
2023-03-29T11:09:14.658Z,3.20
2023-03-29T11:11:56.213Z,3.30
2023-03-29T11:14:42.305Z,2.35
2023-03-29T11:17:35.515Z,2.73
2023-03-29T11:20:28.896Z,2.53
2023-03-29T11:23:11.019Z,4.27
2023-03-29T11:25:47.327Z,3.50
2023-03-29T11:28:17.357Z,3.70
2023-03-29T11:31:08.587Z,4.40
2023-03-29T11:33:57.339Z,3.93
2023-03-29T11:36:44.947Z,3.10
2023-03-29T11:39:20.274Z,3.50
2023-03-29T11:41:53.082Z,4.33
2023-03-29T11:44:26.146Z,6.63
2023-03-29T11:47:13.986Z,3.60
2023-03-29T11:49:56.536Z,3.77
2023-03-29T11:52:32.720Z,5.07
2023-03-29T11:55:12.605Z,2.83
2023-03-29T11:57:53.027Z,5.43
2023-03-29T12:00:46.175Z,3.63
2023-03-29T12:03:32.742Z,3.33
2023-03-29T12:06:16.360Z,3.03
2023-03-29T12:08:50.782Z,3.40
2023-03-29T12:11:31.204Z,3.75
2023-03-29T12:14:10.733Z,3.65
2023-03-29T12:17:02.725Z,6.03
2023-03-29T12:19:38.599Z,3.83
2023-03-29T12:22:08.733Z,2.85
2023-03-29T12:24:40.415Z,2.60
2023-03-29T12:27:17.102Z,4.38
2023-03-29T12:30:16.711Z,3.38
2023-03-29T12:33:10.015Z,2.40
2023-03-29T12:36:08.147Z,3.13
2023-03-29T12:38:35.816Z,2.97
2023-03-29T12:41:13.061Z,3.10
2023-03-29T12:43:41.808Z,3.40
2023-03-29T12:46:16.008Z,2.83
2023-03-29T12:48:45.352Z,2.50
2023-03-29T12:51:15.396Z,2.35
2023-03-29T12:53:52.956Z,2.97
2023-03-29T12:56:23.791Z,2.60
2023-03-29T12:59:00.215Z,2.53
2023-03-29T13:01:38.176Z,2.78
2023-03-29T13:04:18.882Z,3.20
2023-03-29T13:06:48.458Z,2.58
2023-03-29T13:09:55.406Z,2.67
2023-03-29T13:12:40.061Z,2.80
2023-03-29T13:15:28.071Z,4.10
2023-03-29T13:18:13.794Z,5.20
2023-03-29T13:21:22.842Z,3.33
2023-03-29T13:23:59.694Z,2.92
2023-03-29T13:26:37.457Z,3.35
2023-03-29T13:29:29.028Z,2.85
2023-03-29T13:31:58.961Z,2.95
2023-03-29T13:34:45.472Z,3.35
2023-03-29T13:37:32.622Z,2.80
2023-03-29T13:39:59.393Z,3.30
2023-03-29T13:42:35.790Z,2.95
2023-03-29T13:45:15.967Z,2.78
2023-03-29T13:47:54.905Z,2.90
2023-03-29T13:50:40.054Z,3.40
2023-03-29T13:53:15.439Z,2.60
2023-03-29T13:55:51.418Z,2.70
2023-03-29T13:58:44.538Z,3.40
2023-03-29T14:01:29.438Z,3.65
2023-03-29T14:03:57.618Z,3.83
2023-03-29T14:06:29.278Z,4.07
2023-03-29T14:08:56.539Z,3.22
2023-03-29T14:11:29.361Z,3.25
2023-03-29T14:13:59.134Z,3.08
2023-03-29T14:16:35.404Z,3.45
2023-03-29T14:19:13.862Z,2.72
2023-03-29T14:21:41.689Z,2.38
2023-03-29T14:24:13.207Z,3.00
2023-03-29T14:26:45.938Z,2.72
2023-03-29T14:29:13.045Z,2.60
2023-03-29T14:31:41.911Z,2.25
2023-03-29T14:34:15.126Z,2.60
2023-03-29T14:36:46.778Z,2.72
2023-03-29T14:39:22.561Z,3.58
2023-03-29T14:41:54.497Z,3.00
2023-03-29T14:44:26.381Z,3.35
2023-03-29T14:46:54.227Z,3.55
2023-03-29T14:49:23.616Z,4.00
2023-03-29T14:51:52.587Z,2.92
2023-03-29T14:54:32.927Z,3.67
2023-03-29T14:57:03.424Z,3.08
2023-03-29T14:59:38.721Z,3.08
2023-03-29T15:02:23.765Z,3.72
2023-03-29T15:04:59.868Z,3.33
2023-03-29T15:07:28.329Z,2.85
2023-03-29T15:09:57.748Z,3.50
2023-03-29T15:12:24.965Z,3.95
2023-03-29T15:14:58.731Z,3.03
2023-03-29T15:17:43.111Z,2.60
2023-03-29T15:20:22.089Z,2.97
2023-03-29T15:23:07.737Z,3.90
2023-03-29T15:25:48.061Z,3.10
2023-03-29T15:28:28.280Z,2.42
2023-03-29T15:31:13.204Z,3.42
2023-03-29T15:33:42.086Z,2.40
2023-03-29T15:36:12.047Z,2.30
2023-03-29T15:38:44.540Z,3.15
2023-03-29T15:41:14.755Z,2.80
2023-03-29T15:43:42.034Z,2.40
2023-03-29T15:46:12.194Z,3.03
2023-03-29T15:48:39.339Z,3.15
2023-03-29T15:51:07.168Z,3.17
2023-03-29T15:53:36.409Z,5.03
2023-03-29T15:56:07.738Z,2.88
2023-03-29T15:58:35.599Z,3.83
2023-03-29T16:01:37.926Z,3.50
2023-03-29T16:04:06.045Z,4.28
2023-03-29T16:06:33.760Z,3.40
2023-03-29T16:09:00.709Z,3.22
2023-03-29T16:11:28.731Z,3.90
2023-03-29T16:13:57.880Z,3.53
2023-03-29T16:16:24.905Z,4.30
2023-03-29T16:18:51.959Z,3.17
2023-03-29T16:21:19.918Z,3.45
2023-03-29T16:23:54.233Z,3.80
2023-03-29T16:26:22.234Z,4.35
2023-03-29T16:28:48.951Z,4.13
2023-03-29T16:31:15.794Z,3.65
2023-03-29T16:33:43.274Z,4.28
2023-03-29T16:36:10.815Z,3.40
2023-03-29T16:38:37.595Z,4.53
2023-03-29T16:41:04.586Z,4.63
2023-03-29T16:43:32.644Z,4.50
2023-03-29T16:46:00.173Z,3.97
2023-03-29T16:48:27.506Z,4.45
2023-03-29T16:50:54.307Z,4.22
2023-03-29T16:53:23.614Z,3.95
2023-03-29T16:55:51.109Z,3.38
2023-03-29T16:58:18.149Z,4.05
2023-03-29T17:00:50.196Z,3.83
2023-03-29T17:05:59.497Z,3.90
2023-03-29T17:08:26.718Z,4.60
2023-03-29T17:10:55.531Z,4.75
2023-03-29T17:13:23.996Z,3.92
2023-03-29T17:15:52.912Z,5.80
2023-03-29T17:18:25.162Z,4.50
2023-03-29T17:20:55.204Z,5.00
2023-03-29T17:23:21.942Z,4.38
2023-03-29T17:25:49.072Z,3.92
2023-03-29T17:28:16.144Z,4.00
2023-03-29T17:30:46.764Z,4.20
2023-03-29T17:33:16.226Z,4.70
2023-03-29T17:35:47.655Z,3.55
2023-03-29T17:38:14.759Z,4.53
2023-03-29T17:40:41.887Z,4.70
2023-03-29T17:43:09.187Z,4.35
2023-03-29T17:45:36.925Z,5.40
2023-03-29T17:48:06.200Z,3.60
2023-03-29T17:50:35.868Z,4.53
2023-03-29T17:53:05.866Z,4.88
2023-03-29T17:55:35.068Z,4.88
2023-03-29T17:58:01.923Z,4.05
2023-03-29T18:00:29.636Z,4.75
2023-03-29T18:02:56.476Z,3.95
2023-03-29T18:05:23.533Z,4.93
2023-03-29T18:07:50.270Z,4.00
2023-03-29T18:10:17.492Z,4.63
2023-03-29T18:12:45.048Z,4.40
2023-03-29T18:15:11.877Z,4.13
2023-03-29T18:17:38.658Z,5.43
2023-03-29T18:20:12.039Z,4.32
2023-03-29T18:22:40.082Z,3.40
2023-03-29T18:25:07.588Z,4.65
2023-03-29T18:27:34.341Z,4.68
2023-03-29T18:30:01.718Z,4.43
2023-03-29T18:32:28.500Z,5.10
2023-03-29T18:34:55.751Z,4.53
2023-03-29T18:37:22.715Z,4.53
2023-03-29T18:39:49.988Z,4.45
2023-03-29T18:42:18.040Z,5.75
2023-03-29T18:44:46.026Z,4.60
2023-03-29T18:47:13.411Z,5.15
2023-03-29T18:49:43.789Z,5.72
2023-03-29T18:52:12.618Z,5.50
2023-03-29T18:54:39.397Z,4.82
2023-03-29T18:57:09.119Z,4.93
2023-03-29T18:59:38.484Z,5.65
2023-03-29T19:02:05.747Z,4.93
2023-03-29T19:04:35.409Z,5.78
2023-03-29T19:07:05.379Z,6.18
2023-03-29T19:09:32.520Z,6.20
2023-03-29T19:11:59.685Z,6.85
2023-03-29T19:14:26.416Z,6.20
2023-03-29T19:16:53.746Z,7.53
2023-03-29T19:19:25.624Z,8.90
2023-03-29T19:21:59.844Z,6.35
2023-03-29T19:24:32.517Z,7.30
2023-03-29T19:27:00.060Z,7.72
2023-03-29T19:29:27.202Z,7.15
2023-03-29T19:31:57.735Z,10.15
2023-03-29T19:34:26.193Z,8.00
2023-03-29T19:36:55.458Z,6.82
2023-03-29T19:39:22.932Z,6.32
2023-03-29T19:41:53.989Z,5.82
2023-03-29T19:44:24.216Z,6.93
2023-03-29T19:46:52.613Z,5.68
2023-03-29T19:49:22.206Z,7.25
2023-03-29T19:51:54.731Z,5.65
2023-03-29T19:54:22.354Z,6.40
2023-03-29T19:56:52.032Z,7.70
2023-03-29T19:59:20.909Z,7.25
2023-03-29T20:01:51.337Z,5.93
2023-03-29T20:04:22.830Z,6.10
2023-03-29T20:06:49.686Z,7.38
2023-03-29T20:09:16.579Z,7.50
2023-03-29T20:11:47.456Z,7.35
2023-03-29T20:14:14.264Z,7.00
2023-03-29T20:16:43.475Z,6.45
2023-03-29T20:19:11.056Z,7.93
2023-03-29T20:21:37.944Z,6.45
2023-03-29T20:24:05.803Z,8.10
2023-03-29T20:26:34.268Z,7.18
2023-03-29T20:29:02.829Z,6.88
2023-03-29T20:31:31.524Z,7.47
2023-03-29T20:34:01.304Z,6.50
2023-03-29T20:36:30.622Z,6.57
2023-03-29T20:38:59.572Z,6.25
2023-03-29T20:41:26.777Z,7.43
2023-03-29T20:43:59.182Z,7.43
2023-03-29T20:46:33.608Z,7.10
2023-03-29T20:49:01.965Z,7.97
2023-03-29T20:54:44.148Z,9.85
2023-03-29T20:57:17.421Z,10.27
2023-03-29T20:59:49.394Z,12.82
2023-03-29T21:02:22.311Z,10.07
2023-03-29T21:04:51.868Z,13.25
2023-03-29T21:07:21.359Z,10.25
2023-03-29T21:09:50.330Z,9.63
2023-03-29T21:12:17.551Z,8.80
2023-03-29T21:14:44.944Z,9.70
2023-03-29T21:17:12.042Z,9.93
2023-03-29T21:19:39.553Z,9.40
2023-03-29T21:22:07.124Z,8.38
2023-03-29T21:24:36.365Z,9.27
2023-03-29T21:27:03.229Z,8.75
2023-03-29T21:29:30.151Z,9.02
2023-03-29T21:31:57.681Z,8.15
2023-03-29T21:34:24.430Z,7.35
2023-03-29T21:36:51.741Z,8.23
2023-03-29T21:39:18.888Z,7.63
2023-03-29T21:41:45.840Z,7.85
2023-03-29T21:44:13.465Z,9.55
2023-03-29T21:46:40.463Z,8.10
2023-03-29T21:49:08.066Z,9.57
2023-03-29T21:51:35.644Z,9.70
2023-03-29T21:54:02.746Z,9.32
2023-03-29T21:56:29.444Z,12.25
2023-03-29T21:58:56.146Z,10.10
2023-03-29T22:01:23.040Z,9.45
2023-03-29T22:03:49.753Z,6.95
2023-03-29T22:06:16.931Z,7.95
2023-03-29T22:08:43.688Z,7.82
2023-03-29T22:11:14.368Z,7.20
2023-03-29T22:13:42.943Z,7.40
2023-03-29T22:16:14.113Z,8.90
2023-03-29T22:18:44.077Z,14.98
2023-03-29T22:21:22.447Z,15.73
2023-03-29T22:23:51.947Z,16.80
2023-03-29T22:26:21.473Z,13.38
2023-03-29T22:28:48.190Z,12.05
2023-03-29T22:31:16.945Z,10.57
2023-03-29T22:33:44.067Z,10.50
2023-03-29T22:36:24.495Z,9.90
2023-03-29T22:38:52.092Z,8.32
2023-03-29T22:41:20.719Z,8.50
2023-03-29T22:43:47.796Z,9.80
2023-03-29T22:46:14.691Z,22.73
2023-03-29T22:48:41.654Z,15.38
2023-03-29T22:51:08.394Z,9.80
2023-03-29T22:53:35.768Z,12.95
2023-03-29T22:56:02.832Z,9.45
2023-03-29T22:58:29.704Z,8.95
2023-03-29T23:00:58.205Z,9.63
2023-03-29T23:03:25.441Z,11.93
2023-03-29T23:05:57.891Z,15.00
2023-03-29T23:08:25.810Z,8.15
2023-03-29T23:10:53.074Z,8.32
2023-03-29T23:13:24.214Z,7.45
2023-03-29T23:15:53.894Z,7.95
2023-03-29T23:18:22.526Z,8.00
2023-03-29T23:20:51.784Z,9.15
2023-03-29T23:23:19.859Z,7.38
2023-03-29T23:25:48.445Z,9.60
2023-03-29T23:28:17.001Z,10.05
2023-03-29T23:30:44.295Z,8.10
2023-03-29T23:33:11.963Z,7.97
2023-03-29T23:35:38.700Z,7.72
2023-03-29T23:38:06.201Z,7.50
2023-03-29T23:40:33.610Z,8.27
2023-03-29T23:43:00.750Z,6.88
2023-03-29T23:45:28.471Z,5.85
2023-03-29T23:47:57.784Z,11.07
2023-03-29T23:50:28.779Z,7.88
2023-03-29T23:52:55.882Z,7.25
2023-03-29T23:55:22.565Z,7.13
2023-03-29T23:57:49.977Z,9.48
